Blue Ridge Highway — 3FEY4 — position and weather

sailwx.info

Track history (hours):
 
Tides and Currents Weather Stations Pressure Air Temp Water Temp Dewpoint Dewpoint Depression Visibility Wind Speed Wind Dir Waves Ship Positions

Blue Ridge Highway

Last reported at 2018-Apr-25 22:00 UTC. Time now 2018-Apr-25 22:12 UTC.
Position N 34°40' E 135°18'.

Length 180 m; draft 8 m.

Type: Cargo ship. MMSI: 355558000.

Date/timePositionNaut miles runAvg speedWind from/ knotsBaromVisibWave heightAir tempDewpointWater temp
2018-Apr-25 22:00N 34°40' E 135°18'510.0
2018-Apr-25 21:30N 34°35' E 135°17'612.9
2018-Apr-25 21:00N 34°30' E 135°12'918.1
2018-Apr-25 20:30N 34°23' E 135°05'917.2
2018-Apr-25 20:00N 34°16' E 134°59'713.3
2018-Apr-25 19:31N 34°09' E 134°60'5 9.5
2018-Apr-25 19:01N 34°05' E 134°58'4 7.8
2018-Apr-25 18:31N 34°01' E 134°58'816.4
2018-Apr-25 18:00N 33°53' E 134°57'816.3
2018-Apr-25 17:31N 33°45' E 134°58'816.1
2018-Apr-25 17:00N 33°37' E 134°60'149 5.7
2018-Apr-24 14:40N 33°12' E 132°03'317.3
2018-Apr-24 14:28N 33°15' E 132°02'817.7
2018-Apr-24 14:00N 33°22' E 131°56'917.8
2018-Apr-24 13:30N 33°30' E 131°51'918.2
2018-Apr-24 13:00N 33°38' E 131°47'917.0
2018-Apr-24 12:28N 33°46' E 131°41'817.6
2018-Apr-24 12:00N 33°47' E 131°31'917.5
2018-Apr-24 11:30N 33°49' E 131°21'917.2
2018-Apr-24 11:00N 33°49' E 131°10'611.9
2018-Apr-24 10:30N 33°49' E 131°03'3 5.5
2018-Apr-24 09:59N 33°47' E 131°01'0 0.1
2018-Apr-24 09:29N 33°47' E 131°01'0 0.0
2018-Apr-24 08:59N 33°47' E 131°01'0 0.0
2018-Apr-24 08:29N 33°47' E 131°01'0 0.0
2018-Apr-24 07:59N 33°47' E 131°01'0 0.0
2018-Apr-24 07:29N 33°47' E 131°01'0 0.0
2018-Apr-24 06:59N 33°47' E 131°01'0 0.0
2018-Apr-24 06:29N 33°47' E 131°01'0 0.0
2018-Apr-24 05:59N 33°47' E 131°01'0 0.0
2018-Apr-24 05:29N 33°47' E 131°01'0 1.0
2018-Apr-24 05:00N 33°47' E 131°00'4 8.3
2018-Apr-24 04:30N 33°49' E 131°05'4 8.2
2018-Apr-24 04:00N 33°50' E 131°10'611.1
2018-Apr-24 03:30N 33°51' E 131°16'4 8.8
2018-Apr-24 03:00N 33°51' E 131°21'1 2.5
2018-Apr-24 02:30N 33°50' E 131°23'5 9.0
2018-Apr-24 02:00N 33°49' E 131°28'510.7
2018-Apr-24 01:30N 33°48' E 131°35'611.7
2018-Apr-24 01:00N 33°46' E 131°41'611.0
2018-Apr-24 00:30N 33°42' E 131°46'713.7
2018-Apr-24 00:00N 33°36' E 131°50'713.7
2018-Apr-23 23:30N 33°30' E 131°54'713.4
2018-Apr-23 23:01N 33°24' E 131°56'815.6
2018-Apr-23 22:30N 33°17' E 132°01'916.3
2018-Apr-23 21:58N 33°11' E 132°08'1516.1
2018-Apr-23 21:03N 32°57' E 132°15'  
2018-Apr-18 11:17N 33°54' E 136°38'616.0
2018-Apr-18 10:56N 33°58' E 136°43'3115.2
2018-Apr-18 08:52N 34°26' E 137°01'1011.3
2018-Apr-18 07:57N 34°36' E 136°58'610.1
2018-Apr-18 07:23N 34°40' E 137°03'615.3
2018-Apr-18 07:00N 34°42' E 137°09'713.5
2018-Apr-18 06:30N 34°44' E 137°17'1 0.9
2018-Apr-18 04:51N 34°44' E 137°19'0 0.0
2018-Apr-18 03:45N 34°44' E 137°19'0 0.0
2018-Apr-18 02:33N 34°44' E 137°19'0 0.1
2018-Apr-18 02:27N 34°44' E 137°19'0 0.0
2018-Apr-17 22:57N 34°44' E 137°19'0 0.0
2018-Apr-17 22:27N 34°44' E 137°19'0 0.0
2018-Apr-17 21:57N 34°44' E 137°19'0 0.3
2018-Apr-17 21:31N 34°44' E 137°19'2 3.3
2018-Apr-17 20:59N 34°42' E 137°18'0 0.0
2018-Apr-17 20:23N 34°42' E 137°18'0 0.0
2018-Apr-17 19:35N 34°42' E 137°18'0 0.0
2018-Apr-17 19:23N 34°42' E 137°18'0 0.0
2018-Apr-17 18:59N 34°42' E 137°18'0 0.0
2018-Apr-17 10:23N 34°42' E 137°18'0 0.0
2018-Apr-15 22:06N 34°42' E 137°18'  
Track history (hours):
 
Tides and Currents Weather Stations Pressure Air Temp Water Temp Dewpoint Dewpoint Depression Visibility Wind Speed Wind Dir Waves Ship Positions

Blue Ridge Highway

Last reported at 2018-Apr-25 22:00 UTC. Time now 2018-Apr-25 22:12 UTC.
Position N 34°40' E 135°18'.

Length 180 m; draft 8 m.

Type: Cargo ship. MMSI: 355558000.

Date/timePositionNaut miles runAvg speedWind from/ knotsBaromVisibWave heightAir tempDewpointWater temp
2018-Apr-25 22:00N 34°40' E 135°18'510.0
2018-Apr-25 21:30N 34°35' E 135°17'612.9
2018-Apr-25 21:00N 34°30' E 135°12'918.1
2018-Apr-25 20:30N 34°23' E 135°05'917.2
2018-Apr-25 20:00N 34°16' E 134°59'713.3
2018-Apr-25 19:31N 34°09' E 134°60'5 9.5
2018-Apr-25 19:01N 34°05' E 134°58'4 7.8
2018-Apr-25 18:31N 34°01' E 134°58'816.4
2018-Apr-25 18:00N 33°53' E 134°57'816.3
2018-Apr-25 17:31N 33°45' E 134°58'816.1
2018-Apr-25 17:00N 33°37' E 134°60'149 5.7
2018-Apr-24 14:40N 33°12' E 132°03'317.3
2018-Apr-24 14:28N 33°15' E 132°02'817.7
2018-Apr-24 14:00N 33°22' E 131°56'917.8
2018-Apr-24 13:30N 33°30' E 131°51'918.2
2018-Apr-24 13:00N 33°38' E 131°47'917.0
2018-Apr-24 12:28N 33°46' E 131°41'817.6
2018-Apr-24 12:00N 33°47' E 131°31'917.5
2018-Apr-24 11:30N 33°49' E 131°21'917.2
2018-Apr-24 11:00N 33°49' E 131°10'611.9
2018-Apr-24 10:30N 33°49' E 131°03'3 5.5
2018-Apr-24 09:59N 33°47' E 131°01'0 0.1
2018-Apr-24 09:29N 33°47' E 131°01'0 0.0
2018-Apr-24 08:59N 33°47' E 131°01'0 0.0
2018-Apr-24 08:29N 33°47' E 131°01'0 0.0
2018-Apr-24 07:59N 33°47' E 131°01'0 0.0
2018-Apr-24 07:29N 33°47' E 131°01'0 0.0
2018-Apr-24 06:59N 33°47' E 131°01'0 0.0
2018-Apr-24 06:29N 33°47' E 131°01'0 0.0
2018-Apr-24 05:59N 33°47' E 131°01'0 0.0
2018-Apr-24 05:29N 33°47' E 131°01'0 1.0
2018-Apr-24 05:00N 33°47' E 131°00'4 8.3
2018-Apr-24 04:30N 33°49' E 131°05'4 8.2
2018-Apr-24 04:00N 33°50' E 131°10'611.1
2018-Apr-24 03:30N 33°51' E 131°16'4 8.8
2018-Apr-24 03:00N 33°51' E 131°21'1 2.5
2018-Apr-24 02:30N 33°50' E 131°23'5 9.0
2018-Apr-24 02:00N 33°49' E 131°28'510.7
2018-Apr-24 01:30N 33°48' E 131°35'611.7
2018-Apr-24 01:00N 33°46' E 131°41'611.0
2018-Apr-24 00:30N 33°42' E 131°46'713.7
2018-Apr-24 00:00N 33°36' E 131°50'713.7
2018-Apr-23 23:30N 33°30' E 131°54'713.4
2018-Apr-23 23:01N 33°24' E 131°56'815.6
2018-Apr-23 22:30N 33°17' E 132°01'916.3
2018-Apr-23 21:58N 33°11' E 132°08'1516.1
2018-Apr-23 21:03N 32°57' E 132°15'  
2018-Apr-18 11:17N 33°54' E 136°38'616.0
2018-Apr-18 10:56N 33°58' E 136°43'3115.2
2018-Apr-18 08:52N 34°26' E 137°01'1011.3
2018-Apr-18 07:57N 34°36' E 136°58'610.1
2018-Apr-18 07:23N 34°40' E 137°03'615.3
2018-Apr-18 07:00N 34°42' E 137°09'713.5
2018-Apr-18 06:30N 34°44' E 137°17'1 0.9
2018-Apr-18 04:51N 34°44' E 137°19'0 0.0
2018-Apr-18 03:45N 34°44' E 137°19'0 0.0
2018-Apr-18 02:33N 34°44' E 137°19'0 0.1
2018-Apr-18 02:27N 34°44' E 137°19'0 0.0
2018-Apr-17 22:57N 34°44' E 137°19'0 0.0
2018-Apr-17 22:27N 34°44' E 137°19'0 0.0
2018-Apr-17 21:57N 34°44' E 137°19'0 0.3
2018-Apr-17 21:31N 34°44' E 137°19'2 3.3
2018-Apr-17 20:59N 34°42' E 137°18'0 0.0
2018-Apr-17 20:23N 34°42' E 137°18'0 0.0
2018-Apr-17 19:35N 34°42' E 137°18'0 0.0
2018-Apr-17 19:23N 34°42' E 137°18'0 0.0
2018-Apr-17 18:59N 34°42' E 137°18'0 0.0
2018-Apr-17 10:23N 34°42' E 137°18'0 0.0
2018-Apr-15 22:06N 34°42' E 137°18'  

Dump ship's entire track history